This is the latest recevied weather packets stored in our database for station/object WB6ANP. If no packets are shown the sender has not sent any weather packets the latest 1 day(s).
| Time | Temp. | Humidity | Pressure | Rain* | Wind** | Luminosity | Snow |
|---|---|---|---|---|---|---|---|
| 1778013293 | 31.67° C | 42% | 1004.8 hPa | 0 mm | 3.58 m/s, 278° | 603 W/m² | - |
| 1778012990 | 31.67° C | 43% | 1005 hPa | 0 mm | 3.58 m/s, 238° | 639 W/m² | - |
| 1778012687 | 31.67° C | 44% | 1005 hPa | 0 mm | 3.58 m/s, 279° | 830 W/m² | - |
| 1778012383 | 31.67° C | 44% | 1005 hPa | 0 mm | 2.68 m/s, 276° | 756 W/m² | - |
| 1778012080 | 31.11° C | 43% | 1005 hPa | 0 mm | 2.68 m/s, 273° | 579 W/m² | - |
| 1778011778 | 30.56° C | 43% | 1005.1 hPa | 0 mm | 3.58 m/s, 267° | 530 W/m² | - |
| 1778011475 | 30.56° C | 42% | 1005 hPa | 0 mm | 4.02 m/s, 277° | 637 W/m² | - |
| 1778011170 | 31.11° C | 46% | 1004.9 hPa | 0 mm | 2.24 m/s, 271° | 1145 W/m² | - |
| 1778010868 | 31.11° C | 46% | 1005.3 hPa | 0 mm | 3.13 m/s, 233° | 502 W/m² | - |
| 1778010565 | 31.11° C | 46% | 1005.4 hPa | 0 mm | 4.92 m/s, 239° | 766 W/m² | - |
| 1778010263 | 30.56° C | 47% | 1005.4 hPa | 0 mm | 2.68 m/s, 283° | 1086 W/m² | - |
| 1778009962 | 30.56° C | 47% | 1005.4 hPa | 0 mm | 3.13 m/s, 228° | 928 W/m² | - |
| 1778009660 | 30.56° C | 50% | 1005.4 hPa | 0 mm | 4.92 m/s, 223° | 421 W/m² | - |
| 1778009358 | 30.56° C | 51% | 1005.4 hPa | 0 mm | 2.24 m/s, 276° | 497 W/m² | - |
| 1778009056 | 30.56° C | 49% | 1005.4 hPa | 0 mm | 2.68 m/s, 250° | 504 W/m² | - |
| 1778008753 | 30.56° C | 51% | 1005.4 hPa | 0 mm | 2.68 m/s, 252° | 773 W/m² | - |
| 1778008452 | 30.56° C | 52% | 1005.3 hPa | 0 mm | 4.02 m/s, 212° | 640 W/m² | - |
| 1778008148 | 30.56° C | 51% | 1005.5 hPa | 0 mm | 4.02 m/s, 256° | 926 W/m² | - |
| 1778007844 | 30.56° C | 53% | 1005 hPa | 0 mm | 2.24 m/s, 203° | 1091 W/m² | - |
| 1778007539 | 30° C | 53% | 1005.1 hPa | 0 mm | 2.24 m/s, 268° | 910 W/m² | - |
| 1778007236 | 30° C | 53% | 1005.3 hPa | 0 mm | 4.92 m/s, 240° | 862 W/m² | - |
| 1778006932 | 29.44° C | 55% | 1005.3 hPa | 0 mm | 2.68 m/s, 239° | 760 W/m² | - |
| 1778006629 | 30° C | 56% | 1005.1 hPa | 0 mm | 2.24 m/s, 226° | 1023 W/m² | - |
| 1778006326 | 29.44° C | 56% | 1004.9 hPa | 0 mm | 1.34 m/s, 195° | 930 W/m² | - |
| 1778006023 | 29.44° C | 55% | 1005.3 hPa | 0 mm | 4.92 m/s, 235° | 934 W/m² | - |
* Rain latest hour (hover to see other rain measurements)
** Current wind speed in m/s (hover to see current wind gust speed)